Accueil
METAR-TAF:

METAR-TAF

Aéroports :

Saint-Gall, Suisse

Aéroport international Saint-Gall-Altenrhein

latitude: 47-29-06N, longitude: 009-33-43E, altitude: 398 m

Observation

Le bulletin a été fait il y a 29 minutes, à 09:50 UTC
Vent 7 kt de nord-est, variant entre nord et est
Température 0°C
Humidité 74%
Pression 1013 hPa
Visibilité: 8000 m
Nuages fragmentés à une hauteur de 2100 ft

METAR: LSZR 240950Z 04007KT 010V080 8000 BKN021 00/M04 Q1013 NOSIG RMK D

Heure: 11:19 (10:19 UTC)

Prévision

Le bulletin a été fait il y a 1 heure et 54 minutes, à 08:25 UTC
Prévision valable du 24 à 09 UTC au 24 à 18 UTC
Vent 5 kt de est
Visibilité: 8000 m
Ciel couvert à une hauteur de 2000 ft
Probabilité 40%
du 24 à 12 UTC au 24 à 18 UTC
Vent 15 kt de nord-est avec des rafales jusqu'à 25 kt

TAF: LSZR 240825Z 2409/2418 08005KT 8000 OVC020 PROB40 2412/2418 04015G25KT

Observations et prévisions météorologiques de plus de 4000 aéroports (messages METAR et TAF).

Les stations disponibles sont représentées par des disques jaunes et rouges sur la carte.

Passer la souris dessus pour voir le nom de la station.

Cliquer dessus pour voir les observations et prévisions météorologiques.

Pour changer de carte: cliquez sur les boutons verts avec une croix noire pour zoomer, sur le bouton vert avec un tiret pour effectuer un zoom arrière, ou sur les flèches vertes pour les cartes adjacentes.


METAR-TAF: